sensor_id;sensor_type;location;lat;lon;timestamp;pressure;altitude;pressure_sealevel;temperature;humidity
29383;BME280;16365;51.598;7.668;2023-05-19T00:01:58;101946.84;;;17.07;35.85
29383;BME280;16365;51.598;7.668;2023-05-19T00:04:31;101936.66;;;17.02;35.62
29383;BME280;16365;51.598;7.668;2023-05-19T00:06:59;101940.16;;;16.99;36.01
29383;BME280;16365;51.598;7.668;2023-05-19T00:09:26;101940.81;;;16.96;36.16
29383;BME280;16365;51.598;7.668;2023-05-19T00:11:53;101936.72;;;16.93;35.75
29383;BME280;16365;51.598;7.668;2023-05-19T00:14:22;101935.09;;;16.92;35.89
29383;BME280;16365;51.598;7.668;2023-05-19T00:16:49;101936.59;;;16.90;35.96
29383;BME280;16365;51.598;7.668;2023-05-19T00:19:16;101932.97;;;16.89;36.21
29383;BME280;16365;51.598;7.668;2023-05-19T00:21:43;101942.84;;;16.87;36.13
29383;BME280;16365;51.598;7.668;2023-05-19T00:24:09;101942.84;;;16.87;36.31
29383;BME280;16365;51.598;7.668;2023-05-19T00:26:35;101935.63;;;16.86;36.70
29383;BME280;16365;51.598;7.668;2023-05-19T00:29:04;101938.78;;;16.84;36.53
29383;BME280;16365;51.598;7.668;2023-05-19T00:31:32;101936.78;;;16.85;36.53
29383;BME280;16365;51.598;7.668;2023-05-19T00:34:00;101940.75;;;16.84;36.78
29383;BME280;16365;51.598;7.668;2023-05-19T00:36:26;101935.47;;;16.82;36.28
29383;BME280;16365;51.598;7.668;2023-05-19T00:38:53;101939.44;;;16.81;36.44
29383;BME280;16365;51.598;7.668;2023-05-19T00:41:20;101932.88;;;16.77;36.70
29383;BME280;16365;51.598;7.668;2023-05-19T00:43:46;101933.56;;;16.74;36.71
29383;BME280;16365;51.598;7.668;2023-05-19T00:46:13;101940.16;;;16.69;36.89
29383;BME280;16365;51.598;7.668;2023-05-19T00:48:41;101938.03;;;16.66;36.77
29383;BME280;16365;51.598;7.668;2023-05-19T00:51:11;101939.06;;;16.62;36.88
29383;BME280;16365;51.598;7.668;2023-05-19T00:53:39;101932.97;;;16.60;36.99
29383;BME280;16365;51.598;7.668;2023-05-19T00:56:06;101928.88;;;16.57;37.02
29383;BME280;16365;51.598;7.668;2023-05-19T00:58:33;101931.53;;;16.54;37.32
29383;BME280;16365;51.598;7.668;2023-05-19T01:01:01;101931.41;;;16.50;37.18
29383;BME280;16365;51.598;7.668;2023-05-19T01:03:33;101938.97;;;16.50;37.10
29383;BME280;16365;51.598;7.668;2023-05-19T01:06:01;101942.91;;;16.49;37.20
29383;BME280;16365;51.598;7.668;2023-05-19T01:08:37;101934.84;;;16.47;37.79
29383;BME280;16365;51.598;7.668;2023-05-19T01:11:06;101934.38;;;16.45;37.42
29383;BME280;16365;51.598;7.668;2023-05-19T01:13:34;101934.72;;;16.43;37.09
29383;BME280;16365;51.598;7.668;2023-05-19T01:16:10;101929.66;;;16.37;38.28
29383;BME280;16365;51.598;7.668;2023-05-19T01:18:43;101928.03;;;16.36;38.20
29383;BME280;16365;51.598;7.668;2023-05-19T01:33:01;101923.03;;;16.12;38.21
29383;BME280;16365;51.598;7.668;2023-05-19T01:35:29;101926.84;;;16.07;37.50
29383;BME280;16365;51.598;7.668;2023-05-19T01:37:58;101923.72;;;16.00;37.96
29383;BME280;16365;51.598;7.668;2023-05-19T01:40:26;101921.13;;;15.95;37.83
29383;BME280;16365;51.598;7.668;2023-05-19T01:42:56;101918.50;;;15.90;37.97
29383;BME280;16365;51.598;7.668;2023-05-19T01:45:23;101925.09;;;15.85;38.19
29383;BME280;16365;51.598;7.668;2023-05-19T01:47:57;101922.47;;;15.80;38.69
29383;BME280;16365;51.598;7.668;2023-05-19T01:50:24;101913.63;;;15.78;38.19
29383;BME280;16365;51.598;7.668;2023-05-19T01:52:51;101921.53;;;15.76;38.60
29383;BME280;16365;51.598;7.668;2023-05-19T01:55:18;101927.44;;;15.75;38.37
29383;BME280;16365;51.598;7.668;2023-05-19T02:11:55;101935.19;;;15.52;38.91
29383;BME280;16365;51.598;7.668;2023-05-19T02:14:31;101933.72;;;15.46;38.98
29383;BME280;16365;51.598;7.668;2023-05-19T02:17:03;101936.69;;;15.40;38.85
29383;BME280;16365;51.598;7.668;2023-05-19T02:19:33;101941.28;;;15.36;39.06
29383;BME280;16365;51.598;7.668;2023-05-19T02:22:03;101936.69;;;15.32;38.72
29383;BME280;16365;51.598;7.668;2023-05-19T02:24:29;101934.59;;;15.29;38.93
29383;BME280;16365;51.598;7.668;2023-05-19T02:26:56;101943.28;;;15.27;39.23
29383;BME280;16365;51.598;7.668;2023-05-19T02:29:22;101936.38;;;15.25;39.46
29383;BME280;16365;51.598;7.668;2023-05-19T02:31:49;101934.75;;;15.24;39.18
29383;BME280;16365;51.598;7.668;2023-05-19T02:34:16;101934.59;;;15.20;39.50
29383;BME280;16365;51.598;7.668;2023-05-19T02:36:43;101928.47;;;15.18;39.33
29383;BME280;16365;51.598;7.668;2023-05-19T02:39:11;101927.19;;;15.15;39.60
29383;BME280;16365;51.598;7.668;2023-05-19T02:41:38;101929.97;;;15.15;39.58
29383;BME280;16365;51.598;7.668;2023-05-19T02:44:04;101931.97;;;15.15;39.61
29383;BME280;16365;51.598;7.668;2023-05-19T02:46:31;101933.94;;;15.14;39.66
29383;BME280;16365;51.598;7.668;2023-05-19T02:48:58;101928.34;;;15.14;39.64
29383;BME280;16365;51.598;7.668;2023-05-19T02:51:24;101933.13;;;15.14;39.76
29383;BME280;16365;51.598;7.668;2023-05-19T02:53:53;101929.50;;;15.13;39.85
29383;BME280;16365;51.598;7.668;2023-05-19T02:56:22;101928.19;;;15.11;39.71
29383;BME280;16365;51.598;7.668;2023-05-19T02:58:48;101920.13;;;15.09;39.87
29383;BME280;16365;51.598;7.668;2023-05-19T03:01:15;101923.91;;;15.05;39.90
29383;BME280;16365;51.598;7.668;2023-05-19T03:03:43;101929.81;;;15.03;39.62
29383;BME280;16365;51.598;7.668;2023-05-19T03:06:11;101925.19;;;14.99;39.73
29383;BME280;16365;51.598;7.668;2023-05-19T03:08:38;101926.69;;;14.96;40.42
29383;BME280;16365;51.598;7.668;2023-05-19T03:11:07;101924.56;;;14.93;40.04
29383;BME280;16365;51.598;7.668;2023-05-19T03:13:35;101923.25;;;14.90;39.98
29383;BME280;16365;51.598;7.668;2023-05-19T03:16:04;101922.44;;;14.90;40.40
29383;BME280;16365;51.598;7.668;2023-05-19T03:18:33;101919.63;;;14.90;39.43
29383;BME280;16365;51.598;7.668;2023-05-19T03:20:59;101917.84;;;14.85;39.46
29383;BME280;16365;51.598;7.668;2023-05-19T03:23:26;101919.63;;;14.81;40.06
29383;BME280;16365;51.598;7.668;2023-05-19T03:25:54;101919.78;;;14.76;39.96
29383;BME280;16365;51.598;7.668;2023-05-19T03:28:21;101917.63;;;14.73;40.11
29383;BME280;16365;51.598;7.668;2023-05-19T03:30:52;101913.84;;;14.69;39.83
29383;BME280;16365;51.598;7.668;2023-05-19T03:33:19;101918.94;;;14.67;40.47
29383;BME280;16365;51.598;7.668;2023-05-19T03:35:45;101915.97;;;14.63;40.42
29383;BME280;16365;51.598;7.668;2023-05-19T03:38:13;101927.81;;;14.60;40.08
29383;BME280;16365;51.598;7.668;2023-05-19T03:40:39;101936.00;;;14.57;39.96
29383;BME280;16365;51.598;7.668;2023-05-19T03:43:07;101935.84;;;14.53;40.27
29383;BME280;16365;51.598;7.668;2023-05-19T03:45:34;101942.91;;;14.51;40.11
29383;BME280;16365;51.598;7.668;2023-05-19T03:48:00;101932.38;;;14.48;40.40
29383;BME280;16365;51.598;7.668;2023-05-19T03:50:27;101941.34;;;14.45;40.79
29383;BME280;16365;51.598;7.668;2023-05-19T03:52:55;101937.25;;;14.42;40.57
29383;BME280;16365;51.598;7.668;2023-05-19T03:55:21;101946.78;;;14.41;40.40
29383;BME280;16365;51.598;7.668;2023-05-19T03:57:48;101941.50;;;14.39;40.71
29383;BME280;16365;51.598;7.668;2023-05-19T04:00:16;101949.06;;;14.39;40.98
29383;BME280;16365;51.598;7.668;2023-05-19T04:02:43;101951.50;;;14.40;40.96
29383;BME280;16365;51.598;7.668;2023-05-19T04:05:09;101951.22;;;14.42;41.23
29383;BME280;16365;51.598;7.668;2023-05-19T04:07:36;101947.75;;;14.45;41.36
29383;BME280;16365;51.598;7.668;2023-05-19T04:10:06;101937.97;;;14.48;41.06
29383;BME280;16365;51.598;7.668;2023-05-19T04:12:33;101947.34;;;14.52;40.95
29383;BME280;16365;51.598;7.668;2023-05-19T04:14:59;101947.19;;;14.57;41.10
29383;BME280;16365;51.598;7.668;2023-05-19T04:17:26;101939.81;;;14.61;41.29
29383;BME280;16365;51.598;7.668;2023-05-19T04:19:53;101944.41;;;14.65;40.83
29383;BME280;16365;51.598;7.668;2023-05-19T04:22:19;101947.69;;;14.68;41.25
29383;BME280;16365;51.598;7.668;2023-05-19T04:24:46;101937.50;;;14.72;40.60
29383;BME280;16365;51.598;7.668;2023-05-19T04:27:13;101940.78;;;14.74;41.03
29383;BME280;16365;51.598;7.668;2023-05-19T04:29:41;101943.75;;;14.77;41.07
29383;BME280;16365;51.598;7.668;2023-05-19T04:32:08;101936.72;;;14.80;40.94
29383;BME280;16365;51.598;7.668;2023-05-19T04:34:36;101933.25;;;14.83;40.86
29383;BME280;16365;51.598;7.668;2023-05-19T04:37:12;101938.53;;;14.84;40.50
29383;BME280;16365;51.598;7.668;2023-05-19T04:39:39;101942.63;;;14.87;40.44
29383;BME280;16365;51.598;7.668;2023-05-19T04:42:11;101931.13;;;14.88;40.64
29383;BME280;16365;51.598;7.668;2023-05-19T04:44:38;101936.06;;;14.91;40.83
29383;BME280;16365;51.598;7.668;2023-05-19T04:47:07;101938.50;;;14.93;41.27
29383;BME280;16365;51.598;7.668;2023-05-19T04:49:36;101935.56;;;14.98;40.70
29383;BME280;16365;51.598;7.668;2023-05-19T04:52:08;101940.50;;;15.01;40.86
29383;BME280;16365;51.598;7.668;2023-05-19T04:54:38;101937.38;;;15.03;40.44
29383;BME280;16365;51.598;7.668;2023-05-19T04:57:05;101936.25;;;15.04;40.75
29383;BME280;16365;51.598;7.668;2023-05-19T04:59:32;101939.50;;;15.06;40.62
29383;BME280;16365;51.598;7.668;2023-05-19T05:01:59;101930.78;;;15.07;40.64
29383;BME280;16365;51.598;7.668;2023-05-19T05:04:25;101940.50;;;15.10;40.65
29383;BME280;16365;51.598;7.668;2023-05-19T05:06:51;101931.44;;;15.13;40.79
29383;BME280;16365;51.598;7.668;2023-05-19T05:09:19;101930.31;;;15.14;40.70
29383;BME280;16365;51.598;7.668;2023-05-19T05:11:46;101927.66;;;15.17;40.49
29383;BME280;16365;51.598;7.668;2023-05-19T05:14:15;101930.97;;;15.20;40.48
29383;BME280;16365;51.598;7.668;2023-05-19T05:16:42;101929.47;;;15.22;40.68
29383;BME280;16365;51.598;7.668;2023-05-19T05:19:09;101934.41;;;15.25;40.50
29383;BME280;16365;51.598;7.668;2023-05-19T05:21:36;101936.06;;;15.26;40.57
29383;BME280;16365;51.598;7.668;2023-05-19T05:24:03;101932.91;;;15.28;40.48
29383;BME280;16365;51.598;7.668;2023-05-19T05:26:32;101945.75;;;15.29;40.91
29383;BME280;16365;51.598;7.668;2023-05-19T05:29:01;101945.06;;;15.32;40.65
29383;BME280;16365;51.598;7.668;2023-05-19T05:31:28;101945.25;;;15.35;40.60
29383;BME280;16365;51.598;7.668;2023-05-19T05:33:54;101946.25;;;15.39;41.05
29383;BME280;16365;51.598;7.668;2023-05-19T05:36:23;101932.91;;;15.45;40.66
29383;BME280;16365;51.598;7.668;2023-05-19T05:38:49;101939.47;;;15.49;40.74
29383;BME280;16365;51.598;7.668;2023-05-19T05:41:18;101937.66;;;15.53;40.78
29383;BME280;16365;51.598;7.668;2023-05-19T05:43:44;101942.56;;;15.56;40.52
29383;BME280;16365;51.598;7.668;2023-05-19T05:46:11;101939.47;;;15.58;40.50
29383;BME280;16365;51.598;7.668;2023-05-19T05:48:38;101943.56;;;15.60;40.50
29383;BME280;16365;51.598;7.668;2023-05-19T05:51:05;101938.78;;;15.61;40.59
29383;BME280;16365;51.598;7.668;2023-05-19T05:53:36;101938.78;;;15.61;40.63
29383;BME280;16365;51.598;7.668;2023-05-19T05:56:05;101942.94;;;15.63;40.43
29383;BME280;16365;51.598;7.668;2023-05-19T05:58:32;101941.78;;;15.64;40.49
29383;BME280;16365;51.598;7.668;2023-05-19T06:01:03;101945.41;;;15.65;40.77
29383;BME280;16365;51.598;7.668;2023-05-19T06:03:31;101938.00;;;15.69;40.91
29383;BME280;16365;51.598;7.668;2023-05-19T06:05:58;101938.97;;;15.73;40.84
29383;BME280;16365;51.598;7.668;2023-05-19T06:08:26;101937.97;;;15.78;41.05
29383;BME280;16365;51.598;7.668;2023-05-19T06:10:55;101938.25;;;15.85;41.20
29383;BME280;16365;51.598;7.668;2023-05-19T06:13:22;101938.59;;;15.92;40.95
29383;BME280;16365;51.598;7.668;2023-05-19T06:15:49;101936.06;;;15.99;40.76
29383;BME280;16365;51.598;7.668;2023-05-19T06:18:16;101936.88;;;16.08;40.97
29383;BME280;16365;51.598;7.668;2023-05-19T06:20:43;101939.97;;;16.15;40.60
29383;BME280;16365;51.598;7.668;2023-05-19T06:23:09;101933.84;;;16.22;40.40
29383;BME280;16365;51.598;7.668;2023-05-19T06:25:36;101932.84;;;16.27;40.49
29383;BME280;16365;51.598;7.668;2023-05-19T06:28:03;101923.09;;;16.33;40.78
29383;BME280;16365;51.598;7.668;2023-05-19T06:30:29;101930.47;;;16.37;40.74
29383;BME280;16365;51.598;7.668;2023-05-19T06:32:56;101922.69;;;16.43;40.71
29383;BME280;16365;51.598;7.668;2023-05-19T06:35:22;101926.97;;;16.49;40.80
29383;BME280;16365;51.598;7.668;2023-05-19T06:37:50;101924.44;;;16.56;40.73
29383;BME280;16365;51.598;7.668;2023-05-19T06:40:19;101921.59;;;16.65;40.41
29383;BME280;16365;51.598;7.668;2023-05-19T06:42:45;101914.63;;;16.71;40.04
29383;BME280;16365;51.598;7.668;2023-05-19T06:45:11;101912.94;;;16.79;40.50
29383;BME280;16365;51.598;7.668;2023-05-19T06:47:38;101920.44;;;16.87;40.70
29383;BME280;16365;51.598;7.668;2023-05-19T06:50:08;101917.59;;;16.95;40.53
29383;BME280;16365;51.598;7.668;2023-05-19T06:52:36;101907.13;;;17.05;40.00
29383;BME280;16365;51.598;7.668;2023-05-19T06:55:04;101920.72;;;17.15;40.35
29383;BME280;16365;51.598;7.668;2023-05-19T06:57:31;101919.00;;;17.23;39.77
29383;BME280;16365;51.598;7.668;2023-05-19T06:59:58;101913.66;;;17.30;39.64
29383;BME280;16365;51.598;7.668;2023-05-19T07:02:24;101919.53;;;17.37;39.81
29383;BME280;16365;51.598;7.668;2023-05-19T07:04:51;101920.59;;;17.44;39.97
29383;BME280;16365;51.598;7.668;2023-05-19T07:07:19;101922.50;;;17.53;39.90
29383;BME280;16365;51.598;7.668;2023-05-19T07:09:46;101920.78;;;17.60;39.74
29383;BME280;16365;51.598;7.668;2023-05-19T07:12:15;101916.22;;;17.68;39.35
29383;BME280;16365;51.598;7.668;2023-05-19T07:14:41;101919.78;;;17.77;39.53
29383;BME280;16365;51.598;7.668;2023-05-19T07:17:09;101913.59;;;17.84;39.61
29383;BME280;16365;51.598;7.668;2023-05-19T07:19:36;101915.50;;;17.92;39.36
29383;BME280;16365;51.598;7.668;2023-05-19T07:22:04;101913.41;;;18.01;39.20
29383;BME280;16365;51.598;7.668;2023-05-19T07:24:31;101906.88;;;18.09;39.16
29383;BME280;16365;51.598;7.668;2023-05-19T07:26:57;101913.19;;;18.18;39.28
29383;BME280;16365;51.598;7.668;2023-05-19T07:29:24;101907.44;;;18.27;38.96
29383;BME280;16365;51.598;7.668;2023-05-19T07:31:50;101905.81;;;18.38;38.77
29383;BME280;16365;51.598;7.668;2023-05-19T07:34:21;101908.59;;;18.50;38.97
29383;BME280;16365;51.598;7.668;2023-05-19T07:36:47;101908.59;;;18.63;38.62
29383;BME280;16365;51.598;7.668;2023-05-19T07:39:14;101907.41;;;18.76;38.62
29383;BME280;16365;51.598;7.668;2023-05-19T07:41:41;101906.69;;;18.91;38.43
29383;BME280;16365;51.598;7.668;2023-05-19T07:44:07;101897.94;;;19.09;38.28
29383;BME280;16365;51.598;7.668;2023-05-19T07:46:36;101896.44;;;19.27;38.13
29383;BME280;16365;51.598;7.668;2023-05-19T07:49:04;101903.03;;;19.47;38.07
29383;BME280;16365;51.598;7.668;2023-05-19T07:51:32;101900.84;;;19.68;37.71
29383;BME280;16365;51.598;7.668;2023-05-19T07:53:58;101900.56;;;19.89;37.25
29383;BME280;16365;51.598;7.668;2023-05-19T07:56:25;101897.03;;;20.08;37.34
29383;BME280;16365;51.598;7.668;2023-05-19T07:58:52;101894.28;;;20.27;37.03
29383;BME280;16365;51.598;7.668;2023-05-19T08:01:19;101898.00;;;20.47;36.94
29383;BME280;16365;51.598;7.668;2023-05-19T08:03:45;101894.50;;;20.70;36.93
29383;BME280;16365;51.598;7.668;2023-05-19T08:06:12;101884.50;;;20.92;36.66
29383;BME280;16365;51.598;7.668;2023-05-19T08:08:38;101885.38;;;21.15;35.99
29383;BME280;16365;51.598;7.668;2023-05-19T08:11:05;101880.19;;;21.37;35.78
29383;BME280;16365;51.598;7.668;2023-05-19T08:13:32;101886.25;;;21.58;35.80
29383;BME280;16365;51.598;7.668;2023-05-19T08:16:00;101888.69;;;21.83;35.44
29383;BME280;16365;51.598;7.668;2023-05-19T08:18:29;101883.47;;;22.07;35.50
29383;BME280;16365;51.598;7.668;2023-05-19T08:20:55;101888.34;;;22.33;35.28
29383;BME280;16365;51.598;7.668;2023-05-19T08:23:23;101879.88;;;22.60;34.96
29383;BME280;16365;51.598;7.668;2023-05-19T08:25:50;101885.47;;;22.87;34.63
29383;BME280;16365;51.598;7.668;2023-05-19T08:28:17;101881.00;;;23.12;34.42
29383;BME280;16365;51.598;7.668;2023-05-19T08:30:44;101871.19;;;23.40;33.65
29383;BME280;16365;51.598;7.668;2023-05-19T08:33:10;101872.66;;;23.64;32.95
29383;BME280;16365;51.598;7.668;2023-05-19T08:35:37;101866.78;;;23.83;32.48
29383;BME280;16365;51.598;7.668;2023-05-19T08:38:03;101863.69;;;23.99;32.05
29383;BME280;16365;51.598;7.668;2023-05-19T08:40:32;101861.78;;;24.14;31.32
29383;BME280;16365;51.598;7.668;2023-05-19T08:43:01;101860.63;;;24.25;31.28
29383;BME280;16365;51.598;7.668;2023-05-19T08:45:27;101852.22;;;24.36;30.72
29383;BME280;16365;51.598;7.668;2023-05-19T08:47:55;101854.31;;;24.46;30.91
29383;BME280;16365;51.598;7.668;2023-05-19T08:50:29;101851.94;;;24.55;29.40
29383;BME280;16365;51.598;7.668;2023-05-19T08:53:22;101847.91;;;24.56;30.18
29383;BME280;16365;51.598;7.668;2023-05-19T08:56:14;101839.41;;;24.60;29.21
29383;BME280;16365;51.598;7.668;2023-05-19T08:58:43;101835.78;;;24.63;29.70
29383;BME280;16365;51.598;7.668;2023-05-19T09:01:12;101836.59;;;24.64;31.13
29383;BME280;16365;51.598;7.668;2023-05-19T09:03:39;101832.53;;;24.65;29.42
29383;BME280;16365;51.598;7.668;2023-05-19T09:06:09;101829.28;;;24.59;29.08
29383;BME280;16365;51.598;7.668;2023-05-19T09:08:40;101828.44;;;24.55;28.29
29383;BME280;16365;51.598;7.668;2023-05-19T09:11:10;101823.97;;;24.47;27.91
29383;BME280;16365;51.598;7.668;2023-05-19T09:13:38;101828.38;;;24.37;27.68
29383;BME280;16365;51.598;7.668;2023-05-19T09:16:06;101828.25;;;24.26;28.21
29383;BME280;16365;51.598;7.668;2023-05-19T09:18:33;101829.41;;;24.15;27.82
29383;BME280;16365;51.598;7.668;2023-05-19T09:21:04;101829.31;;;24.04;27.67
29383;BME280;16365;51.598;7.668;2023-05-19T09:23:34;101822.38;;;23.94;28.14
29383;BME280;16365;51.598;7.668;2023-05-19T09:26:04;101814.22;;;23.85;27.81
29383;BME280;16365;51.598;7.668;2023-05-19T09:28:35;101808.91;;;23.80;27.94
29383;BME280;16365;51.598;7.668;2023-05-19T09:31:09;101817.78;;;23.75;28.15
29383;BME280;16365;51.598;7.668;2023-05-19T09:33:38;101814.91;;;23.72;27.79
29383;BME280;16365;51.598;7.668;2023-05-19T09:36:07;101810.41;;;23.67;27.35
29383;BME280;16365;51.598;7.668;2023-05-19T09:38:34;101807.91;;;23.62;27.13
29383;BME280;16365;51.598;7.668;2023-05-19T09:41:03;101803.81;;;23.56;27.64
29383;BME280;16365;51.598;7.668;2023-05-19T09:43:31;101801.34;;;23.51;27.83
29383;BME280;16365;51.598;7.668;2023-05-19T09:46:10;101804.53;;;23.46;27.63
29383;BME280;16365;51.598;7.668;2023-05-19T09:48:39;101806.97;;;23.47;27.46
29383;BME280;16365;51.598;7.668;2023-05-19T09:51:07;101796.84;;;23.46;27.41
29383;BME280;16365;51.598;7.668;2023-05-19T09:53:37;101795.59;;;23.44;27.51
29383;BME280;16365;51.598;7.668;2023-05-19T09:56:04;101798.84;;;23.42;27.64
29383;BME280;16365;51.598;7.668;2023-05-19T09:58:33;101795.19;;;23.42;27.55
29383;BME280;16365;51.598;7.668;2023-05-19T10:01:03;101784.25;;;23.40;26.85
29383;BME280;16365;51.598;7.668;2023-05-19T10:03:30;101787.06;;;23.40;27.34
29383;BME280;16365;51.598;7.668;2023-05-19T10:06:00;101789.09;;;23.40;27.13
29383;BME280;16365;51.598;7.668;2023-05-19T10:08:28;101792.31;;;23.38;27.14
29383;BME280;16365;51.598;7.668;2023-05-19T10:10:56;101788.69;;;23.38;27.13
29383;BME280;16365;51.598;7.668;2023-05-19T10:13:23;101781.41;;;23.37;27.31
29383;BME280;16365;51.598;7.668;2023-05-19T10:15:51;101783.03;;;23.38;27.18
29383;BME280;16365;51.598;7.668;2023-05-19T10:18:25;101775.34;;;23.38;27.51
29383;BME280;16365;51.598;7.668;2023-05-19T10:20:54;101771.31;;;23.39;27.45
29383;BME280;16365;51.598;7.668;2023-05-19T10:23:24;101762.81;;;23.39;27.07
29383;BME280;16365;51.598;7.668;2023-05-19T10:25:54;101762.81;;;23.39;26.91
29383;BME280;16365;51.598;7.668;2023-05-19T10:28:25;101764.03;;;23.38;26.96
29383;BME280;16365;51.598;7.668;2023-05-19T10:30:59;101769.69;;;23.38;27.00
29383;BME280;16365;51.598;7.668;2023-05-19T10:33:54;101768.84;;;23.34;27.24
29383;BME280;16365;51.598;7.668;2023-05-19T10:36:45;101775.75;;;23.37;27.35
29383;BME280;16365;51.598;7.668;2023-05-19T10:39:21;101775.34;;;23.38;27.37
29383;BME280;16365;51.598;7.668;2023-05-19T10:42:02;101767.31;;;23.44;27.14
29383;BME280;16365;51.598;7.668;2023-05-19T10:44:34;101773.00;;;23.47;27.35
29383;BME280;16365;51.598;7.668;2023-05-19T10:47:05;101768.97;;;23.48;27.84
29383;BME280;16365;51.598;7.668;2023-05-19T10:49:38;101765.75;;;23.50;27.43
29383;BME280;16365;51.598;7.668;2023-05-19T10:52:18;101763.75;;;23.50;27.62
29383;BME280;16365;51.598;7.668;2023-05-19T10:54:47;101760.94;;;23.57;27.67
29383;BME280;16365;51.598;7.668;2023-05-19T10:57:17;101757.75;;;23.63;27.31
29383;BME280;16365;51.598;7.668;2023-05-19T10:59:45;101758.22;;;23.68;27.14
29383;BME280;16365;51.598;7.668;2023-05-19T11:02:50;101742.88;;;23.69;27.38
29383;BME280;16365;51.598;7.668;2023-05-19T11:05:27;101748.16;;;23.71;26.46
29383;BME280;16365;51.598;7.668;2023-05-19T11:07:58;101748.97;;;23.71;26.40
29383;BME280;16365;51.598;7.668;2023-05-19T11:10:31;101743.72;;;23.73;26.74
29383;BME280;16365;51.598;7.668;2023-05-19T11:12:58;101741.69;;;23.74;26.94
29383;BME280;16365;51.598;7.668;2023-05-19T11:15:32;101742.13;;;23.76;27.19
29383;BME280;16365;51.598;7.668;2023-05-19T11:18:03;101746.16;;;23.78;26.61
29383;BME280;16365;51.598;7.668;2023-05-19T11:20:30;101746.63;;;23.84;26.63
29383;BME280;16365;51.598;7.668;2023-05-19T11:23:08;101750.28;;;23.84;27.34
29383;BME280;16365;51.598;7.668;2023-05-19T11:28:10;101742.63;;;23.92;27.02
29383;BME280;16365;51.598;7.668;2023-05-19T11:30:40;101732.53;;;23.95;27.15
29383;BME280;16365;51.598;7.668;2023-05-19T11:33:09;101744.31;;;24.00;27.26
29383;BME280;16365;51.598;7.668;2023-05-19T11:35:37;101739.88;;;24.06;27.28
29383;BME280;16365;51.598;7.668;2023-05-19T11:38:05;101737.47;;;24.12;26.56
29383;BME280;16365;51.598;7.668;2023-05-19T11:40:32;101733.06;;;24.18;26.66
29383;BME280;16365;51.598;7.668;2023-05-19T11:42:58;101737.97;;;24.25;26.16
29383;BME280;16365;51.598;7.668;2023-05-19T11:45:28;101727.84;;;24.31;26.06
29383;BME280;16365;51.598;7.668;2023-05-19T11:47:58;101725.06;;;24.34;25.85
29383;BME280;16365;51.598;7.668;2023-05-19T11:50:29;101722.25;;;24.38;26.02
29383;BME280;16365;51.598;7.668;2023-05-19T11:52:59;101719.03;;;24.40;25.92
29383;BME280;16365;51.598;7.668;2023-05-19T11:55:28;101715.00;;;24.44;26.25
29383;BME280;16365;51.598;7.668;2023-05-19T11:58:01;101716.22;;;24.47;26.16
29383;BME280;16365;51.598;7.668;2023-05-19T12:00:38;101720.28;;;24.49;25.63
29383;BME280;16365;51.598;7.668;2023-05-19T12:03:06;101718.28;;;24.53;24.91
29383;BME280;16365;51.598;7.668;2023-05-19T12:05:36;101723.13;;;24.53;24.89
29383;BME280;16365;51.598;7.668;2023-05-19T12:08:09;101713.81;;;24.52;24.85
29383;BME280;16365;51.598;7.668;2023-05-19T12:10:36;101717.84;;;24.51;25.06
29383;BME280;16365;51.598;7.668;2023-05-19T12:13:04;101717.03;;;24.51;25.19
29383;BME280;16365;51.598;7.668;2023-05-19T12:15:34;101703.25;;;24.49;25.33
29383;BME280;16365;51.598;7.668;2023-05-19T12:18:02;101718.66;;;24.48;25.38
29383;BME280;16365;51.598;7.668;2023-05-19T12:20:29;101705.69;;;24.51;25.01
29383;BME280;16365;51.598;7.668;2023-05-19T12:22:57;101697.63;;;24.53;25.68
29383;BME280;16365;51.598;7.668;2023-05-19T12:25:25;101689.13;;;24.56;24.76
29383;BME280;16365;51.598;7.668;2023-05-19T12:27:57;101694.78;;;24.53;24.77
29383;BME280;16365;51.598;7.668;2023-05-19T12:30:26;101691.13;;;24.52;24.55
29383;BME280;16365;51.598;7.668;2023-05-19T12:32:54;101686.28;;;24.53;25.11
29383;BME280;16365;51.598;7.668;2023-05-19T12:35:28;101682.22;;;24.54;24.80
29383;BME280;16365;51.598;7.668;2023-05-19T12:37:54;101678.19;;;24.58;24.79
29383;BME280;16365;51.598;7.668;2023-05-19T12:40:21;101676.56;;;24.61;25.33
29383;BME280;16365;51.598;7.668;2023-05-19T12:42:49;101677.38;;;24.65;25.35
29383;BME280;16365;51.598;7.668;2023-05-19T12:45:20;101682.66;;;24.70;24.49
29383;BME280;16365;51.598;7.668;2023-05-19T12:47:48;101677.00;;;24.74;24.73
29383;BME280;16365;51.598;7.668;2023-05-19T12:50:15;101678.22;;;24.80;24.58
29383;BME280;16365;51.598;7.668;2023-05-19T12:52:44;101673.38;;;24.80;24.70
29383;BME280;16365;51.598;7.668;2023-05-19T12:55:13;101664.47;;;24.82;24.29
29383;BME280;16365;51.598;7.668;2023-05-19T12:57:42;101673.38;;;24.84;24.69
29383;BME280;16365;51.598;7.668;2023-05-19T13:00:14;101679.84;;;24.84;23.94
29383;BME280;16365;51.598;7.668;2023-05-19T13:03:03;101669.72;;;24.83;24.62
29383;BME280;16365;51.598;7.668;2023-05-19T13:05:36;101663.66;;;24.88;24.24
29383;BME280;16365;51.598;7.668;2023-05-19T13:08:05;101659.59;;;24.90;24.81
29383;BME280;16365;51.598;7.668;2023-05-19T13:10:33;101664.47;;;24.93;24.61
29383;BME280;16365;51.598;7.668;2023-05-19T13:13:00;101657.19;;;24.95;24.53
29383;BME280;16365;51.598;7.668;2023-05-19T13:15:29;101654.34;;;24.99;24.36
29383;BME280;16365;51.598;7.668;2023-05-19T13:18:06;101660.00;;;25.02;24.71
29383;BME280;16365;51.598;7.668;2023-05-19T13:20:34;101657.22;;;25.09;24.35
29383;BME280;16365;51.598;7.668;2023-05-19T13:23:02;101655.19;;;25.13;24.22
29383;BME280;16365;51.598;7.668;2023-05-19T13:25:32;101651.94;;;25.19;24.34
29383;BME280;16365;51.598;7.668;2023-05-19T13:28:00;101652.75;;;25.23;24.56